US-0749 weather

CLOSED Ashland airport
Ashland, Maine, United States

Public forecast

Using degrees Fahrenheit for public forecast. Weather courtesy of forecast.io.

METAR (pilot weather report)

Closest report is Northern Maine Regional Airport at Presque Isle, 15.4 nm (28.5 km) ENE. Retrieved 2019/07/18 21:56 UTC (45 minutes ago):

KPQI 182156Z AUTO 32004KT 10SM CLR 25/08 A2993 RMK AO2 SLP158 T02500083

TAF (pilot weather forecast)

Closest forecast is Northern Maine Regional Airport at Presque Isle, 15.4 nm (28.5 km) ENE. Retrieved 2019/07/18 18:22 UTC (4 hours ago):

TAF KPQI 181720Z 1818/1918 29003KT P6SM FEW250 FM182000 25003KT P6SM FEW250 FM190500 17003KT P6SM FEW200 FM191200 17005KT P6SM SCT040 FM191700 19009KT P6SM BKN040